Time;durP1;ratioP1;P1;durP2;ratioP2;P2;SDS_P1;SDS_P2;PMS_P1;PMS_P2;Temp;Humidity;BMP_temperature;BMP_pressure;BME280_temperature;BME280_humidity;BME280_pressure;Samples;Min_cycle;Max_cycle;Signal;HPM_P1;HPM_P2
2021/09/23 00:02:37;;;;;;;;;;;13.40;1.00;;;;;;5040824;28;20321;-81
2021/09/23 00:05:02;;;;;;;;;;;13.30;1.00;;;;;;5045127;28;19939;-83
2021/09/23 00:07:28;;;;;;;;;;;13.30;99.90;;;;;;5057861;28;19916;-81
2021/09/23 00:09:53;;;;;;;;;;;13.30;99.90;;;;;;5059508;28;19963;-82
2021/09/23 00:12:19;;;;;;;;;;;13.30;99.90;;;;;;5060100;28;20323;-83
2021/09/23 00:14:44;;;;;;;;;;;13.30;99.90;;;;;;5049040;28;19952;-84
2021/09/23 00:17:10;;;;;;;;;;;13.20;99.90;;;;;;5041633;28;19921;-82
2021/09/23 00:19:35;;;;;;;;;;;13.20;99.90;;;;;;5055931;28;19909;-81
2021/09/23 00:22:01;;;;;;;;;;;13.10;99.90;;;;;;5060291;28;19913;-81
2021/09/23 00:24:26;;;;;;;;;;;13.10;1.00;;;;;;5058033;28;19924;-83
2021/09/23 00:26:52;;;;;;;;;;;13.10;1.00;;;;;;5059205;28;19913;-81
2021/09/23 00:29:17;;;;;;;;;;;13.00;1.00;;;;;;5059404;28;19932;-81
2021/09/23 00:31:43;;;;;;;;;;;13.00;1.00;;;;;;5058739;28;19917;-81
2021/09/23 00:34:08;;;;;;;;;;;13.00;1.00;;;;;;5058750;28;20292;-82
2021/09/23 00:36:34;;;;;;;;;;;12.90;1.00;;;;;;5050717;28;19948;-81
2021/09/23 00:38:59;;;;;;;;;;;12.80;1.00;;;;;;5053504;28;20385;-81
2021/09/23 00:41:25;;;;;;;;;;;12.80;1.00;;;;;;5042851;28;19924;-80
2021/09/23 00:43:50;;;;;;;;;;;12.70;1.00;;;;;;5047687;28;19923;-81
2021/09/23 00:46:16;;;;;;;;;;;12.70;1.00;;;;;;5057662;28;20576;-81
2021/09/23 00:48:43;;;;;;;;;;;12.70;57.00;;;;;;5056735;28;19917;-81
2021/09/23 00:51:09;;;;;;;;;;;12.70;97.30;;;;;;5059443;28;19916;-81
2021/09/23 00:53:34;;;;;;;;;;;12.70;99.90;;;;;;5054568;28;19916;-81
2021/09/23 00:56:02;;;;;;;;;;;12.70;99.90;;;;;;5059650;28;19920;-82
2021/09/23 00:58:27;;;;;;;;;;;12.70;99.90;;;;;;5048024;28;19925;-81
2021/09/23 01:00:53;;;;;;;;;;;12.70;93.80;;;;;;5055019;28;19959;-81
2021/09/23 01:03:18;;;;;;;;;;;12.70;47.60;;;;;;5040660;28;19913;-81
2021/09/23 01:05:44;;;;;;;;;;;12.70;1.20;;;;;;5052875;28;19920;-81
2021/09/23 01:08:09;;;;;;;;;;;12.60;22.80;;;;;;5060893;28;20656;-81
2021/09/23 01:10:35;;;;;;;;;;;12.60;42.50;;;;;;5047429;28;19952;-82
2021/09/23 01:13:00;;;;;;;;;;;12.60;60.70;;;;;;5041007;28;20305;-81
2021/09/23 01:15:26;;;;;;;;;;;12.60;73.60;;;;;;5049305;28;19953;-81
2021/09/23 01:17:52;;;;;;;;;;;12.60;69.80;;;;;;5058130;28;19994;-81
2021/09/23 01:20:18;;;;;;;;;;;12.60;57.70;;;;;;5059339;28;20008;-81
2021/09/23 01:22:44;;;;;;;;;;;12.50;38.40;;;;;;5050102;28;20407;-81
2021/09/23 01:25:10;;;;;;;;;;;12.50;24.30;;;;;;5043086;28;19952;-81
2021/09/23 01:27:35;;;;;;;;;;;12.50;22.40;;;;;;5053767;28;19913;-81
2021/09/23 01:30:03;;;;;;;;;;;12.50;28.20;;;;;;5041084;28;19909;-81
2021/09/23 01:32:28;;;;;;;;;;;12.50;41.60;;;;;;5052618;28;20004;-81
2021/09/23 01:34:54;;;;;;;;;;;12.50;38.10;;;;;;5056099;28;19967;-81
2021/09/23 01:37:19;;;;;;;;;;;12.40;37.30;;;;;;5053566;28;19921;-82
2021/09/23 01:39:45;;;;;;;;;;;12.40;45.60;;;;;;5058462;28;19921;-82
2021/09/23 01:42:10;;;;;;;;;;;12.40;53.80;;;;;;5060501;28;19920;-81
2021/09/23 01:44:36;;;;;;;;;;;12.40;99.90;;;;;;5061276;28;19937;-81
2021/09/23 01:47:01;;;;;;;;;;;12.40;99.90;;;;;;5055048;28;19920;-81
2021/09/23 01:49:27;;;;;;;;;;;12.40;99.90;;;;;;5043310;28;19920;-81
2021/09/23 01:51:53;;;;;;;;;;;12.40;99.90;;;;;;5055576;28;19912;-81
2021/09/23 01:54:18;;;;;;;;;;;12.40;99.90;;;;;;5059945;28;19909;-82
2021/09/23 01:56:44;;;;;;;;;;;12.40;99.90;;;;;;5049550;28;19917;-81
2021/09/23 01:59:09;;;;;;;;;;;12.30;99.90;;;;;;5059631;28;19920;-81
2021/09/23 02:01:35;;;;;;;;;;;12.30;99.90;;;;;;5043854;28;19936;-81
2021/09/23 02:04:01;;;;;;;;;;;12.30;99.90;;;;;;5059678;28;19912;-81
2021/09/23 02:06:27;;;;;;;;;;;12.20;99.90;;;;;;5056566;28;19924;-81
2021/09/23 02:08:52;;;;;;;;;;;12.20;99.90;;;;;;5043885;28;19920;-82
2021/09/23 02:11:18;;;;;;;;;;;12.10;99.90;;;;;;5040958;28;19919;-81
2021/09/23 02:13:43;;;;;;;;;;;12.10;99.90;;;;;;5053020;28;19979;-81
2021/09/23 02:16:09;;;;;;;;;;;12.00;99.90;;;;;;5059086;28;19943;-81
2021/09/23 02:18:35;;;;;;;;;;;12.00;99.90;;;;;;5049113;28;19923;-81
2021/09/23 02:21:00;;;;;;;;;;;12.00;99.90;;;;;;5041476;28;19942;-81
2021/09/23 02:23:25;;;;;;;;;;;12.00;99.90;;;;;;5057248;28;19924;-81
2021/09/23 02:25:51;;;;;;;;;;;12.00;99.90;;;;;;5054804;28;19913;-81
2021/09/23 02:28:17;;;;;;;;;;;12.00;99.90;;;;;;5056616;28;19916;-82
2021/09/23 02:30:42;;;;;;;;;;;11.90;99.90;;;;;;5057627;28;19908;-81
2021/09/23 02:33:08;;;;;;;;;;;11.90;99.90;;;;;;5053631;28;19913;-80
2021/09/23 02:35:33;;;;;;;;;;;11.90;99.90;;;;;;5043802;28;19912;-81
2021/09/23 02:37:59;;;;;;;;;;;11.90;99.90;;;;;;5054976;28;19917;-80
2021/09/23 02:40:24;;;;;;;;;;;12.00;99.90;;;;;;5039231;28;19909;-82
2021/09/23 02:42:49;;;;;;;;;;;12.00;99.90;;;;;;5050420;28;19924;-81
2021/09/23 02:45:16;;;;;;;;;;;12.00;99.90;;;;;;5058633;28;19913;-81
2021/09/23 02:47:42;;;;;;;;;;;12.00;99.90;;;;;;5042399;28;19924;-80
2021/09/23 02:50:07;;;;;;;;;;;12.00;99.90;;;;;;5038752;28;20003;-81
2021/09/23 02:52:33;;;;;;;;;;;12.10;99.90;;;;;;5048828;28;20007;-81
2021/09/23 02:54:58;;;;;;;;;;;12.10;99.90;;;;;;5042965;28;20336;-80
2021/09/23 02:57:24;;;;;;;;;;;12.10;99.90;;;;;;5048234;28;19924;-82
2021/09/23 02:59:50;;;;;;;;;;;12.10;99.90;;;;;;5056442;28;19913;-82
2021/09/23 03:02:16;;;;;;;;;;;12.10;99.90;;;;;;5056391;28;19913;-82
2021/09/23 03:04:41;;;;;;;;;;;12.00;99.90;;;;;;5057453;28;20135;-82
2021/09/23 03:07:07;;;;;;;;;;;12.10;99.90;;;;;;5056757;28;19913;-82
2021/09/23 03:09:32;;;;;;;;;;;12.10;99.90;;;;;;5058746;28;20377;-82
2021/09/23 03:11:58;;;;;;;;;;;12.00;99.90;;;;;;5056800;28;19920;-82
2021/09/23 03:14:23;;;;;;;;;;;12.10;99.90;;;;;;5057802;28;20292;-81
2021/09/23 03:16:49;;;;;;;;;;;12.10;99.90;;;;;;5050889;28;19913;-81
2021/09/23 03:19:14;;;;;;;;;;;12.10;99.90;;;;;;5057321;28;19920;-81
2021/09/23 03:21:40;;;;;;;;;;;12.10;99.90;;;;;;5042850;28;20389;-82
2021/09/23 03:24:06;;;;;;;;;;;12.10;99.90;;;;;;5044903;28;19964;-82
2021/09/23 03:26:32;;;;;;;;;;;12.10;99.90;;;;;;5038438;28;19936;-82
2021/09/23 03:28:57;;;;;;;;;;;12.10;99.90;;;;;;5051560;28;20284;-82
2021/09/23 03:31:23;;;;;;;;;;;12.10;99.90;;;;;;5057003;28;19932;-82
2021/09/23 03:33:48;;;;;;;;;;;12.10;99.90;;;;;;5047523;28;19913;-81
2021/09/23 03:36:14;;;;;;;;;;;12.00;99.90;;;;;;5038382;28;19913;-82
2021/09/23 03:38:41;;;;;;;;;;;12.00;99.90;;;;;;5054231;28;19916;-81
2021/09/23 03:41:06;;;;;;;;;;;12.00;99.90;;;;;;5056031;28;19959;-81
2021/09/23 03:43:32;;;;;;;;;;;11.90;99.90;;;;;;5057415;28;19913;-82
2021/09/23 03:46:03;;;;;;;;;;;11.90;99.90;;;;;;5058046;28;19915;-81
2021/09/23 03:48:29;;;;;;;;;;;11.90;99.90;;;;;;5055132;28;19963;-81
2021/09/23 03:50:54;;;;;;;;;;;11.90;99.90;;;;;;5047131;28;19936;-81
2021/09/23 03:53:20;;;;;;;;;;;11.90;99.90;;;;;;5038187;28;20043;-82
2021/09/23 03:55:45;;;;;;;;;;;11.90;99.90;;;;;;5041453;28;19917;-81
2021/09/23 03:58:11;;;;;;;;;;;11.80;99.90;;;;;;5051943;28;19978;-82
2021/09/23 04:00:36;;;;;;;;;;;11.80;99.90;;;;;;5057257;28;19917;-82
2021/09/23 04:03:01;;;;;;;;;;;11.80;1.00;;;;;;5058845;28;19915;-82
2021/09/23 04:05:27;;;;;;;;;;;11.80;1.00;;;;;;5052651;28;19924;-82
2021/09/23 04:07:52;;;;;;;;;;;11.80;1.00;;;;;;5049947;28;19913;-82
2021/09/23 04:10:18;;;;;;;;;;;11.80;1.00;;;;;;5044579;28;19950;-82
2021/09/23 04:12:43;;;;;;;;;;;11.80;1.00;;;;;;5058247;28;19924;-82
2021/09/23 04:15:09;;;;;;;;;;;11.80;1.00;;;;;;5059013;28;20380;-82
2021/09/23 04:17:35;;;;;;;;;;;11.80;1.00;;;;;;5055143;28;20019;-83
2021/09/23 04:20:00;;;;;;;;;;;11.80;1.00;;;;;;5056178;28;19932;-81
2021/09/23 04:22:26;;;;;;;;;;;11.80;1.00;;;;;;5055051;28;19921;-82
2021/09/23 04:24:52;;;;;;;;;;;11.80;1.00;;;;;;5055851;28;19940;-82
2021/09/23 04:27:17;;;;;;;;;;;11.80;1.00;;;;;;5052257;28;19913;-82
2021/09/23 04:29:43;;;;;;;;;;;11.80;1.00;;;;;;5054498;28;19913;-82
2021/09/23 04:32:09;;;;;;;;;;;11.80;1.00;;;;;;5057196;28;19966;-82
2021/09/23 04:34:35;;;;;;;;;;;11.80;1.00;;;;;;5056629;28;19913;-81
2021/09/23 04:37:00;;;;;;;;;;;11.80;1.00;;;;;;5057234;28;19952;-82
2021/09/23 04:39:26;;;;;;;;;;;11.80;1.00;;;;;;5055844;28;19917;-82
2021/09/23 04:41:51;;;;;;;;;;;11.80;1.00;;;;;;5052849;28;19913;-81
2021/09/23 04:44:17;;;;;;;;;;;11.80;1.00;;;;;;5040453;28;19917;-82
2021/09/23 04:46:42;;;;;;;;;;;11.80;1.00;;;;;;5056046;28;19913;-82
2021/09/23 04:49:08;;;;;;;;;;;11.80;1.00;;;;;;5056765;28;19992;-82
2021/09/23 04:51:33;;;;;;;;;;;11.80;1.00;;;;;;5056828;28;20281;-83
2021/09/23 04:54:00;;;;;;;;;;;11.80;1.00;;;;;;5050851;28;20004;-81
2021/09/23 04:56:26;;;;;;;;;;;11.70;1.00;;;;;;5058477;28;19986;-81
2021/09/23 04:58:51;;;;;;;;;;;11.70;1.00;;;;;;5053827;28;19917;-82
2021/09/23 05:01:17;;;;;;;;;;;11.70;1.00;;;;;;5058646;28;19939;-82
2021/09/23 05:03:42;;;;;;;;;;;11.70;1.00;;;;;;5056523;28;20357;-81
2021/09/23 05:06:08;;;;;;;;;;;11.70;1.00;;;;;;5055050;28;19913;-81
2021/09/23 05:08:33;;;;;;;;;;;11.70;1.00;;;;;;5045746;28;20138;-82
2021/09/23 05:10:58;;;;;;;;;;;11.70;1.00;;;;;;5060486;28;19909;-82
2021/09/23 05:13:24;;;;;;;;;;;11.70;1.00;;;;;;5059021;28;19919;-81
2021/09/23 05:15:49;;;;;;;;;;;11.70;1.00;;;;;;5056419;28;19916;-82
2021/09/23 05:18:15;;;;;;;;;;;11.70;1.00;;;;;;5059771;28;19920;-82
2021/09/23 05:20:40;;;;;;;;;;;11.70;1.00;;;;;;5041241;28;19916;-81
2021/09/23 05:23:06;;;;;;;;;;;11.60;1.00;;;;;;5040589;28;19975;-82
2021/09/23 05:25:32;;;;;;;;;;;11.60;1.00;;;;;;5058918;28;19913;-81
2021/09/23 05:27:58;;;;;;;;;;;11.70;1.00;;;;;;5057440;28;20377;-82
2021/09/23 05:30:23;;;;;;;;;;;11.70;1.00;;;;;;5057661;28;19921;-82
2021/09/23 05:32:49;;;;;;;;;;;11.70;1.00;;;;;;5048708;28;19948;-82
2021/09/23 05:35:15;;;;;;;;;;;11.70;1.00;;;;;;5042470;28;19927;-83
2021/09/23 05:37:41;;;;;;;;;;;11.80;1.00;;;;;;5059527;28;19912;-81
2021/09/23 05:40:07;;;;;;;;;;;11.80;1.00;;;;;;5059740;28;19936;-82
2021/09/23 05:42:33;;;;;;;;;;;11.90;1.00;;;;;;5053862;28;19913;-82
2021/09/23 05:44:58;;;;;;;;;;;12.10;99.90;;;;;;5040729;28;19917;-81
2021/09/23 05:47:23;;;;;;;;;;;12.20;99.90;;;;;;5057408;28;20527;-82
2021/09/23 05:49:49;;;;;;;;;;;12.30;99.90;;;;;;5057420;28;19964;-83
2021/09/23 05:52:16;;;;;;;;;;;12.50;99.90;;;;;;5038037;28;19909;-82
2021/09/23 05:54:42;;;;;;;;;;;12.60;77.30;;;;;;5047483;28;19913;-81
2021/09/23 05:57:08;;;;;;;;;;;12.80;1.00;;;;;;5083850;22;19924;-81
2021/09/23 05:59:33;;;;;;;;;;;13.10;1.00;;;;;;5047998;28;20293;-82
2021/09/23 06:01:59;;;;;;;;;;;14.50;1.00;;;;;;5053811;28;20063;-82
2021/09/23 06:04:25;;;;;;;;;;;16.60;57.40;;;;;;5064495;28;19987;-79
2021/09/23 06:06:50;;;;;;;;;;;18.80;99.90;;;;;;5046641;28;19920;-83
2021/09/23 06:09:16;;;;;;;;;;;21.00;1.00;;;;;;5044267;28;19913;-83
2021/09/23 06:11:42;;;;;;;;;;;22.90;1.00;;;;;;5053906;28;19917;-83
2021/09/23 06:14:07;;;;;;;;;;;24.60;99.90;;;;;;5057347;28;19909;-84
2021/09/23 06:16:33;;;;;;;;;;;26.10;99.90;;;;;;5050409;28;19967;-83
2021/09/23 06:18:59;;;;;;;;;;;27.30;99.90;;;;;;5056960;28;20399;-84
2021/09/23 06:21:24;;;;;;;;;;;28.40;99.90;;;;;;5056757;28;19968;-84
2021/09/23 06:23:50;;;;;;;;;;;29.40;99.90;;;;;;5057574;28;20269;-83
2021/09/23 06:26:15;;;;;;;;;;;30.30;99.90;;;;;;5054615;28;19966;-84
2021/09/23 06:28:41;;;;;;;;;;;31.20;99.90;;;;;;5038855;28;19916;-82
2021/09/23 06:31:06;;;;;;;;;;;32.00;99.90;;;;;;5042944;28;19912;-82
2021/09/23 06:33:32;;;;;;;;;;;32.80;99.90;;;;;;5058772;28;19958;-82
2021/09/23 06:35:57;;;;;;;;;;;33.50;99.90;;;;;;5056081;28;19913;-82
2021/09/23 06:38:23;;;;;;;;;;;34.20;99.90;;;;;;5056938;28;19939;-82
2021/09/23 06:40:50;;;;;;;;;;;35.10;99.90;;;;;;5055826;28;19967;-81
2021/09/23 06:43:16;;;;;;;;;;;35.70;99.90;;;;;;5053531;28;19913;-81
2021/09/23 06:45:41;;;;;;;;;;;36.20;99.90;;;;;;5056939;28;20342;-82
2021/09/23 06:48:07;;;;;;;;;;;36.50;99.90;;;;;;5041216;28;20044;-82
2021/09/23 06:50:33;;;;;;;;;;;36.90;99.90;;;;;;5037443;28;19909;-82
2021/09/23 06:52:58;;;;;;;;;;;37.60;99.90;;;;;;5055175;28;19913;-83
2021/09/23 06:55:24;;;;;;;;;;;37.80;99.90;;;;;;5040747;28;19920;-82
2021/09/23 06:57:49;;;;;;;;;;;38.00;99.90;;;;;;5051658;28;19952;-82
2021/09/23 07:00:15;;;;;;;;;;;38.30;99.90;;;;;;5054858;28;20393;-82
2021/09/23 07:02:40;;;;;;;;;;;38.20;99.90;;;;;;5055460;28;19920;-82
2021/09/23 07:05:06;;;;;;;;;;;37.80;99.90;;;;;;5054421;28;19966;-82
2021/09/23 07:07:31;;;;;;;;;;;37.70;99.90;;;;;;5054630;28;20308;-82
2021/09/23 07:10:00;;;;;;;;;;;37.90;99.90;;;;;;5052666;28;20507;-82
2021/09/23 07:12:25;;;;;;;;;;;38.30;99.90;;;;;;5054991;28;19917;-82
2021/09/23 07:14:50;;;;;;;;;;;38.90;99.90;;;;;;5051330;28;19997;-81
2021/09/23 07:17:16;;;;;;;;;;;39.60;99.90;;;;;;5045863;28;19917;-82
2021/09/23 07:19:41;;;;;;;;;;;40.20;99.90;;;;;;5038148;28;20388;-82
2021/09/23 07:22:08;;;;;;;;;;;40.70;99.90;;;;;;5052116;28;19909;-82
2021/09/23 07:24:35;;;;;;;;;;;41.10;99.90;;;;;;5038675;28;19916;-81
2021/09/23 07:27:00;;;;;;;;;;;41.10;99.90;;;;;;5051188;28;19921;-81
2021/09/23 07:29:27;;;;;;;;;;;41.30;99.90;;;;;;5054869;28;19913;-82
2021/09/23 07:31:53;;;;;;;;;;;41.60;99.90;;;;;;5043548;28;19953;-83
2021/09/23 07:34:19;;;;;;;;;;;41.50;99.90;;;;;;5049774;28;19920;-82
2021/09/23 07:36:44;;;;;;;;;;;40.90;99.90;;;;;;5051863;28;20024;-82
2021/09/23 07:39:10;;;;;;;;;;;40.10;99.90;;;;;;5048061;28;19963;-82
2021/09/23 07:41:39;;;;;;;;;;;39.20;99.90;;;;;;5048431;28;19913;-82
2021/09/23 07:44:08;;;;;;;;;;;38.80;99.90;;;;;;5057315;28;19908;-82
2021/09/23 07:46:34;;;;;;;;;;;38.30;99.90;;;;;;5057564;28;19920;-82
2021/09/23 07:48:59;;;;;;;;;;;38.00;99.90;;;;;;5056435;28;19912;-82
2021/09/23 07:51:25;;;;;;;;;;;37.90;99.90;;;;;;5054746;28;19963;-83
2021/09/23 07:53:50;;;;;;;;;;;38.10;99.90;;;;;;5055579;28;19913;-81
2021/09/23 07:56:16;;;;;;;;;;;38.40;99.90;;;;;;5050699;28;19923;-83
2021/09/23 07:58:42;;;;;;;;;;;38.70;99.90;;;;;;5052046;28;20376;-82
2021/09/23 08:01:08;;;;;;;;;;;38.90;99.90;;;;;;5042689;28;20058;-82
2021/09/23 08:03:34;;;;;;;;;;;39.20;99.90;;;;;;5043864;28;19917;-82
2021/09/23 08:05:59;;;;;;;;;;;39.60;99.90;;;;;;5053746;28;19912;-82
2021/09/23 08:08:25;;;;;;;;;;;40.10;99.90;;;;;;5046942;28;19948;-82
2021/09/23 08:10:50;;;;;;;;;;;40.40;99.90;;;;;;5049828;28;19916;-82
2021/09/23 08:13:16;;;;;;;;;;;41.00;99.90;;;;;;5049591;28;19913;-82
2021/09/23 08:15:42;;;;;;;;;;;41.30;99.90;;;;;;5047687;28;19909;-81
2021/09/23 08:18:08;;;;;;;;;;;41.20;99.90;;;;;;5038497;28;19913;-82
2021/09/23 08:20:33;;;;;;;;;;;41.10;99.90;;;;;;5036209;28;20363;-83
2021/09/23 08:22:59;;;;;;;;;;;41.10;99.90;;;;;;5048229;28;20201;-82
2021/09/23 08:25:24;;;;;;;;;;;41.10;99.90;;;;;;5047345;28;20369;-82
2021/09/23 08:27:50;;;;;;;;;;;41.30;99.90;;;;;;5041721;28;19913;-81
2021/09/23 08:30:16;;;;;;;;;;;41.20;99.90;;;;;;5057234;28;20019;-81
2021/09/23 08:32:41;;;;;;;;;;;40.80;99.90;;;;;;5053696;28;20297;-82
2021/09/23 08:35:08;;;;;;;;;;;40.50;99.90;;;;;;5039413;28;19955;-80
2021/09/23 08:37:33;;;;;;;;;;;40.10;99.90;;;;;;5053708;28;20449;-81
2021/09/23 08:39:59;;;;;;;;;;;40.60;99.90;;;;;;5048332;28;19949;-81
2021/09/23 08:42:24;;;;;;;;;;;41.00;99.90;;;;;;5056813;28;19923;-81
2021/09/23 08:44:50;;;;;;;;;;;41.00;99.90;;;;;;5057230;28;19908;-81
2021/09/23 08:47:16;;;;;;;;;;;40.90;99.90;;;;;;5038199;28;19967;-81
2021/09/23 08:49:41;;;;;;;;;;;40.40;99.90;;;;;;5039170;28;19932;-81
2021/09/23 08:52:07;;;;;;;;;;;40.60;99.90;;;;;;5053564;28;19912;-82
2021/09/23 08:54:32;;;;;;;;;;;40.90;99.90;;;;;;5039189;28;19936;-82
2021/09/23 08:57:01;;;;;;;;;;;40.30;99.90;;;;;;5054490;28;19913;-82
2021/09/23 08:59:28;;;;;;;;;;;39.90;99.90;;;;;;5040736;28;19923;-81
2021/09/23 09:01:53;;;;;;;;;;;40.00;99.90;;;;;;5045232;28;19920;-82
2021/09/23 09:04:19;;;;;;;;;;;40.30;99.90;;;;;;5049978;28;19912;-82
2021/09/23 09:06:54;;;;;;;;;;;40.40;99.90;;;;;;5057496;28;20427;-81
2021/09/23 09:09:19;;;;;;;;;;;40.50;99.90;;;;;;5057754;28;19962;-81
2021/09/23 09:11:46;;;;;;;;;;;40.70;99.90;;;;;;5056678;28;20566;-81
2021/09/23 09:14:30;;;;;;;;;;;40.90;99.90;;;;;;5057187;28;19948;-82
2021/09/23 09:17:06;;;;;;;;;;;41.00;99.90;;;;;;5060376;28;19924;-82
2021/09/23 09:19:42;;;;;;;;;;;41.10;99.90;;;;;;5062242;28;20356;-83
2021/09/23 09:22:12;;;;;;;;;;;41.30;99.90;;;;;;5063914;28;19912;-82
2021/09/23 09:24:54;;;;;;;;;;;41.50;99.90;;;;;;5063382;28;19909;-82
2021/09/23 09:27:40;;;;;;;;;;;41.80;99.90;;;;;;5063834;28;19904;-82
2021/09/23 09:30:08;;;;;;;;;;;41.80;99.90;;;;;;5046628;28;19917;-82
2021/09/23 09:32:35;;;;;;;;;;;41.50;99.90;;;;;;5037252;28;19979;-82
2021/09/23 09:35:01;;;;;;;;;;;41.40;99.90;;;;;;5050516;28;20424;-81
2021/09/23 09:37:29;;;;;;;;;;;41.50;99.90;;;;;;5054376;28;19959;-82
2021/09/23 09:39:58;;;;;;;;;;;41.70;99.90;;;;;;5038703;28;19917;-82
2021/09/23 09:42:29;;;;;;;;;;;41.70;99.90;;;;;;5044628;28;19932;-81
2021/09/23 09:44:55;;;;;;;;;;;41.80;99.90;;;;;;5049098;28;19959;-82
2021/09/23 09:47:41;;;;;;;;;;;41.60;99.90;;;;;;5054357;28;19920;-82
2021/09/23 09:50:13;;;;;;;;;;;41.30;99.90;;;;;;5049902;28;19912;-82
2021/09/23 09:52:40;;;;;;;;;;;41.40;99.90;;;;;;5044859;28;19935;-81
2021/09/23 09:55:07;;;;;;;;;;;41.80;99.90;;;;;;5049248;28;19923;-82
2021/09/23 09:57:32;;;;;;;;;;;41.70;99.90;;;;;;5052410;28;19916;-81
2021/09/23 09:59:59;;;;;;;;;;;41.10;99.90;;;;;;5052318;28;19919;-82
2021/09/23 10:02:28;;;;;;;;;;;40.40;99.90;;;;;;5050178;28;19917;-82
2021/09/23 10:04:58;;;;;;;;;;;40.20;99.90;;;;;;5052328;28;19913;-81
2021/09/23 10:07:24;;;;;;;;;;;40.20;99.90;;;;;;5053733;28;20015;-82
2021/09/23 10:09:50;;;;;;;;;;;40.20;99.90;;;;;;5045695;28;19913;-82
2021/09/23 10:12:15;;;;;;;;;;;40.30;99.90;;;;;;5050490;28;22029;-81
2021/09/23 10:14:42;;;;;;;;;;;40.70;99.90;;;;;;5053427;28;19913;-82
2021/09/23 10:17:07;;;;;;;;;;;41.10;99.90;;;;;;5045868;28;19916;-81
2021/09/23 10:19:34;;;;;;;;;;;41.40;99.90;;;;;;5044452;28;20379;-81
2021/09/23 10:22:00;;;;;;;;;;;41.30;99.90;;;;;;5041572;28;20718;-81
2021/09/23 10:24:26;;;;;;;;;;;41.10;99.90;;;;;;5055249;28;20015;-81
2021/09/23 10:26:52;;;;;;;;;;;40.80;99.90;;;;;;5053512;28;20423;-81
2021/09/23 10:29:18;;;;;;;;;;;40.70;99.90;;;;;;5036966;28;19916;-82
2021/09/23 10:31:44;;;;;;;;;;;40.40;99.90;;;;;;5045374;28;20400;-81
2021/09/23 10:34:10;;;;;;;;;;;40.20;99.90;;;;;;5045810;28;19908;-81
2021/09/23 10:36:36;;;;;;;;;;;40.40;99.90;;;;;;5055680;28;19913;-81
2021/09/23 10:39:04;;;;;;;;;;;40.50;99.90;;;;;;5054812;28;20312;-81
2021/09/23 10:41:30;;;;;;;;;;;40.50;99.90;;;;;;5055220;28;19913;-81
2021/09/23 10:43:56;;;;;;;;;;;40.50;99.90;;;;;;5047397;28;19988;-81
2021/09/23 10:46:24;;;;;;;;;;;40.40;99.90;;;;;;5049792;28;20285;-81
2021/09/23 10:48:50;;;;;;;;;;;39.80;99.90;;;;;;5054832;28;19952;-81
2021/09/23 10:51:16;;;;;;;;;;;39.10;99.90;;;;;;5046183;28;19974;-81
2021/09/23 10:53:47;;;;;;;;;;;38.80;99.90;;;;;;5054204;28;20376;-82
2021/09/23 10:56:12;;;;;;;;;;;38.80;99.90;;;;;;5055193;28;19921;-81
2021/09/23 10:58:39;;;;;;;;;;;38.90;99.90;;;;;;5055771;28;20316;-82
2021/09/23 11:01:05;;;;;;;;;;;38.70;99.90;;;;;;5043887;28;19917;-81
2021/09/23 11:03:34;;;;;;;;;;;38.00;99.90;;;;;;5049522;28;19913;-82
2021/09/23 11:06:05;;;;;;;;;;;37.60;99.90;;;;;;5041765;28;20379;-81
2021/09/23 11:08:34;;;;;;;;;;;37.70;99.90;;;;;;5047330;28;19920;-81
2021/09/23 11:10:59;;;;;;;;;;;37.70;99.90;;;;;;5053254;28;19920;-81
2021/09/23 11:13:25;;;;;;;;;;;37.70;99.90;;;;;;5054706;28;19909;-81
2021/09/23 11:15:50;;;;;;;;;;;37.40;99.90;;;;;;5049398;28;19951;-82
2021/09/23 11:18:17;;;;;;;;;;;37.30;99.90;;;;;;5052667;28;19921;-81
2021/09/23 11:20:46;;;;;;;;;;;37.50;99.90;;;;;;5053935;28;20412;-81
2021/09/23 11:23:12;;;;;;;;;;;37.70;99.90;;;;;;5050384;28;19944;-81
2021/09/23 11:25:48;;;;;;;;;;;37.90;99.90;;;;;;5054749;28;19913;-81
2021/09/23 11:28:14;;;;;;;;;;;38.00;99.90;;;;;;5051058;28;20266;-81
2021/09/23 11:30:39;;;;;;;;;;;37.90;99.90;;;;;;5054601;28;19919;-81
2021/09/23 11:33:09;;;;;;;;;;;37.80;99.90;;;;;;5055294;28;20301;-81
2021/09/23 11:35:36;;;;;;;;;;;37.80;99.90;;;;;;5055741;28;19917;-81
2021/09/23 11:38:02;;;;;;;;;;;37.80;99.90;;;;;;5045203;28;19917;-81
2021/09/23 11:40:32;;;;;;;;;;;38.10;99.90;;;;;;5041809;28;19913;-81
2021/09/23 11:42:59;;;;;;;;;;;38.40;99.90;;;;;;5052341;28;19917;-81
2021/09/23 11:45:26;;;;;;;;;;;38.40;99.90;;;;;;5050353;28;19943;-81
2021/09/23 11:47:52;;;;;;;;;;;38.20;99.90;;;;;;5048174;28;20020;-81
2021/09/23 11:50:25;;;;;;;;;;;38.10;99.90;;;;;;5044052;28;19952;-82
2021/09/23 11:52:52;;;;;;;;;;;37.80;99.90;;;;;;5045634;28;19917;-82
2021/09/23 11:55:18;;;;;;;;;;;37.50;99.90;;;;;;5056394;28;19908;-82
2021/09/23 11:57:43;;;;;;;;;;;37.50;99.90;;;;;;5053946;28;19916;-81
2021/09/23 12:00:09;;;;;;;;;;;37.50;99.90;;;;;;5077710;22;19925;-82
2021/09/23 12:02:34;;;;;;;;;;;37.30;99.90;;;;;;5053060;28;19925;-82
2021/09/23 12:05:00;;;;;;;;;;;37.10;99.90;;;;;;5058259;28;19928;-82
2021/09/23 12:07:27;;;;;;;;;;;36.90;99.90;;;;;;5060931;28;20388;-82
2021/09/23 12:10:22;;;;;;;;;;;36.70;99.90;;;;;;5061882;28;19914;-82
2021/09/23 12:12:55;;;;;;;;;;;36.60;99.90;;;;;;5029742;28;19980;-82
2021/09/23 12:15:21;;;;;;;;;;;36.40;99.90;;;;;;5056284;28;20285;-83
2021/09/23 12:17:57;;;;;;;;;;;36.20;99.90;;;;;;5058487;28;19944;-81
2021/09/23 12:20:36;;;;;;;;;;;35.90;99.90;;;;;;5057601;28;20395;-81
2021/09/23 12:23:17;;;;;;;;;;;35.70;99.90;;;;;;5060175;28;19917;-82
2021/09/23 12:25:42;;;;;;;;;;;35.50;99.90;;;;;;5053429;28;19913;-83
2021/09/23 12:28:08;;;;;;;;;;;35.50;99.90;;;;;;5057649;28;20297;-81
2021/09/23 12:30:35;;;;;;;;;;;35.20;99.90;;;;;;5042454;28;19921;-84
2021/09/23 12:33:03;;;;;;;;;;;34.90;99.90;;;;;;5056230;28;20376;-83
2021/09/23 12:35:28;;;;;;;;;;;34.80;99.90;;;;;;5058182;28;19913;-81
2021/09/23 12:37:54;;;;;;;;;;;34.40;99.90;;;;;;5055139;28;19913;-83
2021/09/23 12:40:19;;;;;;;;;;;34.10;99.90;;;;;;5060820;28;19924;-84
2021/09/23 12:42:45;;;;;;;;;;;33.90;99.90;;;;;;5055527;28;19912;-83
2021/09/23 12:45:14;;;;;;;;;;;33.50;99.90;;;;;;5054116;28;20399;-82
2021/09/23 12:47:50;;;;;;;;;;;32.90;99.90;;;;;;5059283;28;19917;-83
2021/09/23 12:50:16;;;;;;;;;;;32.80;99.90;;;;;;5060385;28;19908;-84
2021/09/23 12:52:43;;;;;;;;;;;32.90;99.90;;;;;;5052354;28;20101;-82
2021/09/23 12:55:12;;;;;;;;;;;32.80;99.90;;;;;;5062004;28;20278;-82
2021/09/23 12:57:40;;;;;;;;;;;32.40;99.90;;;;;;5060200;28;19959;-83
2021/09/23 13:00:06;;;;;;;;;;;32.20;99.90;;;;;;5053145;28;19948;-82
2021/09/23 13:02:32;;;;;;;;;;;32.10;99.90;;;;;;5056702;28;19913;-83
2021/09/23 13:05:00;;;;;;;;;;;32.00;99.90;;;;;;5060760;28;19916;-83
2021/09/23 13:07:26;;;;;;;;;;;32.00;99.90;;;;;;5056679;28;20016;-82
2021/09/23 13:10:01;;;;;;;;;;;31.80;99.90;;;;;;5060326;28;19947;-84
2021/09/23 13:12:53;;;;;;;;;;;31.50;99.90;;;;;;5057328;28;19966;-81
2021/09/23 13:15:21;;;;;;;;;;;31.50;99.90;;;;;;5020830;28;19940;-82
2021/09/23 13:18:01;;;;;;;;;;;31.40;99.90;;;;;;5051283;28;20007;-81
2021/09/23 13:20:27;;;;;;;;;;;31.40;99.90;;;;;;5060149;28;19912;-83
2021/09/23 13:22:52;;;;;;;;;;;31.50;99.90;;;;;;5056705;28;19913;-82
2021/09/23 13:25:18;;;;;;;;;;;31.50;99.90;;;;;;5050369;28;19932;-83
2021/09/23 13:27:44;;;;;;;;;;;31.50;99.90;;;;;;5057608;28;19924;-81
2021/09/23 13:30:12;;;;;;;;;;;31.50;99.90;;;;;;5058799;28;19913;-83
2021/09/23 13:32:38;;;;;;;;;;;31.40;99.90;;;;;;5060012;28;19913;-84
2021/09/23 13:35:04;;;;;;;;;;;31.00;99.90;;;;;;5052935;28;19912;-82
2021/09/23 13:37:30;;;;;;;;;;;30.60;99.90;;;;;;5060745;28;19913;-83
2021/09/23 13:39:55;;;;;;;;;;;30.30;99.90;;;;;;5058846;28;20526;-84
2021/09/23 13:42:20;;;;;;;;;;;30.20;99.90;;;;;;5059435;28;19970;-83
2021/09/23 13:44:46;;;;;;;;;;;30.20;99.90;;;;;;5058698;28;19913;-84
2021/09/23 13:47:11;;;;;;;;;;;30.10;99.90;;;;;;5051015;28;19939;-82
2021/09/23 13:49:37;;;;;;;;;;;30.00;99.90;;;;;;5059688;28;20082;-82
2021/09/23 13:52:02;;;;;;;;;;;29.90;99.90;;;;;;5057289;28;19916;-82
2021/09/23 13:54:28;;;;;;;;;;;29.80;99.90;;;;;;5049179;28;19924;-84
2021/09/23 13:56:53;;;;;;;;;;;29.70;99.90;;;;;;5058526;28;19912;-81
2021/09/23 13:59:19;;;;;;;;;;;29.60;99.90;;;;;;5055671;28;19913;-81
2021/09/23 14:01:46;;;;;;;;;;;29.60;99.90;;;;;;5054549;28;20280;-81
2021/09/23 14:04:12;;;;;;;;;;;29.50;99.90;;;;;;5056849;28;19985;-81
2021/09/23 14:06:37;;;;;;;;;;;29.40;99.90;;;;;;5056558;28;19963;-82
2021/09/23 14:09:03;;;;;;;;;;;29.30;99.90;;;;;;5051557;28;19962;-80
2021/09/23 14:11:28;;;;;;;;;;;29.30;99.90;;;;;;5043628;28;19908;-82
2021/09/23 14:13:53;;;;;;;;;;;29.20;99.90;;;;;;5054140;28;19909;-80
2021/09/23 14:16:19;;;;;;;;;;;28.90;99.90;;;;;;5054269;28;19967;-82